sensor_id;sensor_type;location;lat;lon;timestamp;temperature;humidity
18876;DHT22;9570;50.854;13.778;2023-12-20T00:02:09;6.50;99.90
18876;DHT22;9570;50.854;13.778;2023-12-20T00:04:35;6.60;99.90
18876;DHT22;9570;50.854;13.778;2023-12-20T00:07:00;6.70;99.90
18876;DHT22;9570;50.854;13.778;2023-12-20T00:09:26;6.60;99.90
18876;DHT22;9570;50.854;13.778;2023-12-20T00:11:52;6.40;99.90
18876;DHT22;9570;50.854;13.778;2023-12-20T00:14:17;6.50;99.90
18876;DHT22;9570;50.854;13.778;2023-12-20T00:16:43;6.40;99.90
18876;DHT22;9570;50.854;13.778;2023-12-20T00:19:08;6.40;99.90
18876;DHT22;9570;50.854;13.778;2023-12-20T00:21:34;6.40;99.90
18876;DHT22;9570;50.854;13.778;2023-12-20T00:23:59;6.20;99.90
18876;DHT22;9570;50.854;13.778;2023-12-20T00:26:25;6.00;99.90
18876;DHT22;9570;50.854;13.778;2023-12-20T00:28:50;6.00;99.90
18876;DHT22;9570;50.854;13.778;2023-12-20T00:31:16;6.10;99.90
18876;DHT22;9570;50.854;13.778;2023-12-20T00:33:41;6.20;99.90
18876;DHT22;9570;50.854;13.778;2023-12-20T00:36:09;6.00;99.90
18876;DHT22;9570;50.854;13.778;2023-12-20T00:38:35;6.00;99.90
18876;DHT22;9570;50.854;13.778;2023-12-20T00:41:00;5.90;99.90
18876;DHT22;9570;50.854;13.778;2023-12-20T00:43:26;5.80;99.90
18876;DHT22;9570;50.854;13.778;2023-12-20T00:45:52;5.70;99.90
18876;DHT22;9570;50.854;13.778;2023-12-20T00:48:17;5.70;99.90
18876;DHT22;9570;50.854;13.778;2023-12-20T00:50:43;5.70;99.90
18876;DHT22;9570;50.854;13.778;2023-12-20T00:53:08;5.80;99.90
18876;DHT22;9570;50.854;13.778;2023-12-20T00:55:33;5.80;99.90
18876;DHT22;9570;50.854;13.778;2023-12-20T00:57:59;5.70;99.90
18876;DHT22;9570;50.854;13.778;2023-12-20T01:00:25;5.70;99.90
18876;DHT22;9570;50.854;13.778;2023-12-20T01:02:51;5.70;99.90
18876;DHT22;9570;50.854;13.778;2023-12-20T01:05:17;5.60;99.90
18876;DHT22;9570;50.854;13.778;2023-12-20T01:07:43;5.70;99.90
18876;DHT22;9570;50.854;13.778;2023-12-20T01:10:08;5.80;99.90
18876;DHT22;9570;50.854;13.778;2023-12-20T01:12:35;5.70;99.90
18876;DHT22;9570;50.854;13.778;2023-12-20T01:15:00;5.70;99.90
18876;DHT22;9570;50.854;13.778;2023-12-20T01:17:26;5.70;99.90
18876;DHT22;9570;50.854;13.778;2023-12-20T01:19:51;5.60;99.90
18876;DHT22;9570;50.854;13.778;2023-12-20T01:22:17;5.50;99.90
18876;DHT22;9570;50.854;13.778;2023-12-20T01:24:42;5.50;99.90
18876;DHT22;9570;50.854;13.778;2023-12-20T01:27:08;5.50;99.90
18876;DHT22;9570;50.854;13.778;2023-12-20T01:29:33;5.60;99.90
18876;DHT22;9570;50.854;13.778;2023-12-20T01:31:59;5.60;99.90
18876;DHT22;9570;50.854;13.778;2023-12-20T01:34:24;5.50;99.90
18876;DHT22;9570;50.854;13.778;2023-12-20T01:36:49;5.40;99.90
18876;DHT22;9570;50.854;13.778;2023-12-20T01:39:15;5.40;99.90
18876;DHT22;9570;50.854;13.778;2023-12-20T01:41:40;5.30;99.90
18876;DHT22;9570;50.854;13.778;2023-12-20T01:44:06;5.30;99.90
18876;DHT22;9570;50.854;13.778;2023-12-20T01:46:31;5.40;99.90
18876;DHT22;9570;50.854;13.778;2023-12-20T01:48:57;5.40;99.90
18876;DHT22;9570;50.854;13.778;2023-12-20T01:51:23;5.50;99.90
18876;DHT22;9570;50.854;13.778;2023-12-20T01:53:49;5.40;99.90
18876;DHT22;9570;50.854;13.778;2023-12-20T01:56:15;5.30;99.90
18876;DHT22;9570;50.854;13.778;2023-12-20T01:58:44;5.40;99.90
18876;DHT22;9570;50.854;13.778;2023-12-20T02:01:12;5.20;99.90
18876;DHT22;9570;50.854;13.778;2023-12-20T02:03:40;5.20;99.90
18876;DHT22;9570;50.854;13.778;2023-12-20T02:06:07;5.30;99.90
18876;DHT22;9570;50.854;13.778;2023-12-20T02:08:34;5.40;99.90
18876;DHT22;9570;50.854;13.778;2023-12-20T02:11:00;5.40;99.90
18876;DHT22;9570;50.854;13.778;2023-12-20T02:13:25;5.30;99.90
18876;DHT22;9570;50.854;13.778;2023-12-20T02:15:52;5.40;99.90
18876;DHT22;9570;50.854;13.778;2023-12-20T02:18:17;5.40;99.90
18876;DHT22;9570;50.854;13.778;2023-12-20T02:20:43;5.30;99.90
18876;DHT22;9570;50.854;13.778;2023-12-20T02:23:09;5.10;99.90
18876;DHT22;9570;50.854;13.778;2023-12-20T02:25:34;5.30;99.90
18876;DHT22;9570;50.854;13.778;2023-12-20T02:28:00;5.20;99.90
18876;DHT22;9570;50.854;13.778;2023-12-20T02:30:25;5.20;99.90
18876;DHT22;9570;50.854;13.778;2023-12-20T02:32:52;5.20;99.90
18876;DHT22;9570;50.854;13.778;2023-12-20T02:35:17;5.10;99.90
18876;DHT22;9570;50.854;13.778;2023-12-20T02:37:43;5.20;99.90
18876;DHT22;9570;50.854;13.778;2023-12-20T02:40:08;5.30;99.90
18876;DHT22;9570;50.854;13.778;2023-12-20T02:42:34;5.20;99.90
18876;DHT22;9570;50.854;13.778;2023-12-20T02:44:59;5.10;99.90
18876;DHT22;9570;50.854;13.778;2023-12-20T02:47:25;5.10;99.90
18876;DHT22;9570;50.854;13.778;2023-12-20T02:49:50;5.00;99.90
18876;DHT22;9570;50.854;13.778;2023-12-20T02:52:18;4.90;99.90
18876;DHT22;9570;50.854;13.778;2023-12-20T02:54:43;4.90;99.90
18876;DHT22;9570;50.854;13.778;2023-12-20T02:57:09;5.00;99.90
18876;DHT22;9570;50.854;13.778;2023-12-20T02:59:34;5.00;99.90
18876;DHT22;9570;50.854;13.778;2023-12-20T03:02:00;5.10;99.90
18876;DHT22;9570;50.854;13.778;2023-12-20T03:04:25;5.00;99.90
18876;DHT22;9570;50.854;13.778;2023-12-20T03:06:50;5.00;99.90
18876;DHT22;9570;50.854;13.778;2023-12-20T03:09:16;5.00;99.90
18876;DHT22;9570;50.854;13.778;2023-12-20T03:11:41;5.00;99.90
18876;DHT22;9570;50.854;13.778;2023-12-20T03:14:07;4.80;99.90
18876;DHT22;9570;50.854;13.778;2023-12-20T03:16:32;4.90;99.90
18876;DHT22;9570;50.854;13.778;2023-12-20T03:18:58;4.90;99.90
18876;DHT22;9570;50.854;13.778;2023-12-20T03:21:24;4.90;99.90
18876;DHT22;9570;50.854;13.778;2023-12-20T03:23:49;5.00;99.90
18876;DHT22;9570;50.854;13.778;2023-12-20T03:26:14;5.00;99.90
18876;DHT22;9570;50.854;13.778;2023-12-20T03:28:40;5.00;99.90
18876;DHT22;9570;50.854;13.778;2023-12-20T03:31:05;4.90;99.90
18876;DHT22;9570;50.854;13.778;2023-12-20T03:33:31;4.90;99.90
18876;DHT22;9570;50.854;13.778;2023-12-20T03:35:56;5.00;99.90
18876;DHT22;9570;50.854;13.778;2023-12-20T03:38:22;5.00;99.90
18876;DHT22;9570;50.854;13.778;2023-12-20T03:40:49;5.10;99.90
18876;DHT22;9570;50.854;13.778;2023-12-20T03:43:15;5.00;99.90
18876;DHT22;9570;50.854;13.778;2023-12-20T03:45:42;5.10;99.90
18876;DHT22;9570;50.854;13.778;2023-12-20T03:48:07;5.00;99.90
18876;DHT22;9570;50.854;13.778;2023-12-20T03:50:33;4.90;99.90
18876;DHT22;9570;50.854;13.778;2023-12-20T03:52:59;4.90;99.90
18876;DHT22;9570;50.854;13.778;2023-12-20T03:55:24;4.80;99.90
18876;DHT22;9570;50.854;13.778;2023-12-20T03:57:50;4.90;99.90
18876;DHT22;9570;50.854;13.778;2023-12-20T04:00:15;4.90;99.90
18876;DHT22;9570;50.854;13.778;2023-12-20T04:02:41;4.90;99.90
18876;DHT22;9570;50.854;13.778;2023-12-20T04:05:08;5.10;99.90
18876;DHT22;9570;50.854;13.778;2023-12-20T04:07:35;5.10;99.90
18876;DHT22;9570;50.854;13.778;2023-12-20T04:10:00;5.10;99.90
18876;DHT22;9570;50.854;13.778;2023-12-20T04:12:27;5.10;99.90
18876;DHT22;9570;50.854;13.778;2023-12-20T04:14:53;5.10;99.90
18876;DHT22;9570;50.854;13.778;2023-12-20T04:17:20;5.10;99.90
18876;DHT22;9570;50.854;13.778;2023-12-20T04:19:48;5.20;99.90
18876;DHT22;9570;50.854;13.778;2023-12-20T04:22:13;5.20;99.90
18876;DHT22;9570;50.854;13.778;2023-12-20T04:24:39;5.10;99.90
18876;DHT22;9570;50.854;13.778;2023-12-20T04:27:04;5.00;99.90
18876;DHT22;9570;50.854;13.778;2023-12-20T04:29:30;4.90;99.90
18876;DHT22;9570;50.854;13.778;2023-12-20T04:31:55;4.90;99.90
18876;DHT22;9570;50.854;13.778;2023-12-20T04:34:21;5.00;99.90
18876;DHT22;9570;50.854;13.778;2023-12-20T04:36:47;5.00;99.90
18876;DHT22;9570;50.854;13.778;2023-12-20T04:39:13;4.90;99.90
18876;DHT22;9570;50.854;13.778;2023-12-20T04:41:39;4.80;99.90
18876;DHT22;9570;50.854;13.778;2023-12-20T04:44:05;4.80;99.90
18876;DHT22;9570;50.854;13.778;2023-12-20T04:46:31;4.90;99.90
18876;DHT22;9570;50.854;13.778;2023-12-20T04:48:56;5.00;99.90
18876;DHT22;9570;50.854;13.778;2023-12-20T04:51:22;4.90;99.90
18876;DHT22;9570;50.854;13.778;2023-12-20T04:53:47;4.90;99.90
18876;DHT22;9570;50.854;13.778;2023-12-20T04:56:13;4.80;99.90
18876;DHT22;9570;50.854;13.778;2023-12-20T04:58:38;4.70;99.90
18876;DHT22;9570;50.854;13.778;2023-12-20T05:01:09;4.80;99.90
18876;DHT22;9570;50.854;13.778;2023-12-20T05:03:34;4.70;99.90
18876;DHT22;9570;50.854;13.778;2023-12-20T05:06:00;4.80;99.90
18876;DHT22;9570;50.854;13.778;2023-12-20T05:08:25;4.90;99.90
18876;DHT22;9570;50.854;13.778;2023-12-20T05:10:54;5.00;99.90
18876;DHT22;9570;50.854;13.778;2023-12-20T05:13:19;4.90;99.90
18876;DHT22;9570;50.854;13.778;2023-12-20T05:15:45;4.90;99.90
18876;DHT22;9570;50.854;13.778;2023-12-20T05:18:10;5.00;99.90
18876;DHT22;9570;50.854;13.778;2023-12-20T05:20:36;4.90;99.90
18876;DHT22;9570;50.854;13.778;2023-12-20T05:23:02;4.90;99.90
18876;DHT22;9570;50.854;13.778;2023-12-20T05:25:28;4.80;99.90
18876;DHT22;9570;50.854;13.778;2023-12-20T05:27:53;4.90;99.90
18876;DHT22;9570;50.854;13.778;2023-12-20T05:30:18;5.00;99.90
18876;DHT22;9570;50.854;13.778;2023-12-20T05:32:44;4.80;99.90
18876;DHT22;9570;50.854;13.778;2023-12-20T05:35:09;4.80;99.90
18876;DHT22;9570;50.854;13.778;2023-12-20T05:37:35;4.80;99.90
18876;DHT22;9570;50.854;13.778;2023-12-20T05:40:00;4.70;99.90
18876;DHT22;9570;50.854;13.778;2023-12-20T05:42:26;4.80;99.90
18876;DHT22;9570;50.854;13.778;2023-12-20T05:44:51;4.80;99.90
18876;DHT22;9570;50.854;13.778;2023-12-20T05:47:17;4.80;99.90
18876;DHT22;9570;50.854;13.778;2023-12-20T05:49:43;4.80;99.90
18876;DHT22;9570;50.854;13.778;2023-12-20T05:52:09;4.80;99.90
18876;DHT22;9570;50.854;13.778;2023-12-20T05:54:34;4.80;99.90
18876;DHT22;9570;50.854;13.778;2023-12-20T05:57:00;4.80;99.90
18876;DHT22;9570;50.854;13.778;2023-12-20T05:59:26;4.70;99.90
18876;DHT22;9570;50.854;13.778;2023-12-20T06:01:51;4.80;99.90
18876;DHT22;9570;50.854;13.778;2023-12-20T06:04:17;4.90;99.90
18876;DHT22;9570;50.854;13.778;2023-12-20T06:06:43;4.80;99.90
18876;DHT22;9570;50.854;13.778;2023-12-20T06:09:09;4.90;99.90
18876;DHT22;9570;50.854;13.778;2023-12-20T06:11:34;4.80;99.90
18876;DHT22;9570;50.854;13.778;2023-12-20T06:14:00;4.80;99.90
18876;DHT22;9570;50.854;13.778;2023-12-20T06:16:25;4.90;99.90
18876;DHT22;9570;50.854;13.778;2023-12-20T06:18:51;4.90;99.90
18876;DHT22;9570;50.854;13.778;2023-12-20T06:21:16;4.80;99.90
18876;DHT22;9570;50.854;13.778;2023-12-20T06:23:42;4.90;99.90
18876;DHT22;9570;50.854;13.778;2023-12-20T06:26:07;5.00;99.90
18876;DHT22;9570;50.854;13.778;2023-12-20T06:28:33;4.80;99.90
18876;DHT22;9570;50.854;13.778;2023-12-20T06:30:58;4.90;99.90
18876;DHT22;9570;50.854;13.778;2023-12-20T06:33:24;4.90;99.90
18876;DHT22;9570;50.854;13.778;2023-12-20T06:35:50;4.90;99.90
18876;DHT22;9570;50.854;13.778;2023-12-20T06:38:15;4.90;99.90
18876;DHT22;9570;50.854;13.778;2023-12-20T06:40:41;4.90;99.90
18876;DHT22;9570;50.854;13.778;2023-12-20T06:43:08;4.90;99.90
18876;DHT22;9570;50.854;13.778;2023-12-20T06:45:33;5.00;99.90
18876;DHT22;9570;50.854;13.778;2023-12-20T06:47:58;4.90;99.90
18876;DHT22;9570;50.854;13.778;2023-12-20T06:50:24;4.90;99.90
18876;DHT22;9570;50.854;13.778;2023-12-20T06:52:50;4.90;99.90
18876;DHT22;9570;50.854;13.778;2023-12-20T06:55:15;4.90;99.90
18876;DHT22;9570;50.854;13.778;2023-12-20T06:57:41;4.90;99.90
18876;DHT22;9570;50.854;13.778;2023-12-20T07:00:07;4.90;99.90
18876;DHT22;9570;50.854;13.778;2023-12-20T07:02:33;4.90;99.90
18876;DHT22;9570;50.854;13.778;2023-12-20T07:04:59;5.00;99.90
18876;DHT22;9570;50.854;13.778;2023-12-20T07:07:25;5.00;99.90
18876;DHT22;9570;50.854;13.778;2023-12-20T07:09:51;5.00;99.90
18876;DHT22;9570;50.854;13.778;2023-12-20T07:12:17;5.00;99.90
18876;DHT22;9570;50.854;13.778;2023-12-20T07:14:45;5.10;99.90
18876;DHT22;9570;50.854;13.778;2023-12-20T07:17:10;5.00;99.90
18876;DHT22;9570;50.854;13.778;2023-12-20T07:19:37;5.00;99.90
18876;DHT22;9570;50.854;13.778;2023-12-20T07:22:04;5.10;99.90
18876;DHT22;9570;50.854;13.778;2023-12-20T07:24:29;5.00;99.90
18876;DHT22;9570;50.854;13.778;2023-12-20T07:26:55;5.10;99.90
18876;DHT22;9570;50.854;13.778;2023-12-20T07:29:20;5.10;99.90
18876;DHT22;9570;50.854;13.778;2023-12-20T07:31:46;5.10;99.90
18876;DHT22;9570;50.854;13.778;2023-12-20T07:34:11;5.10;99.90
18876;DHT22;9570;50.854;13.778;2023-12-20T07:36:37;5.10;99.90
18876;DHT22;9570;50.854;13.778;2023-12-20T07:39:02;5.10;99.90
18876;DHT22;9570;50.854;13.778;2023-12-20T07:41:28;5.20;99.90
18876;DHT22;9570;50.854;13.778;2023-12-20T07:43:54;5.10;99.90
18876;DHT22;9570;50.854;13.778;2023-12-20T07:46:21;5.10;99.90
18876;DHT22;9570;50.854;13.778;2023-12-20T07:48:48;5.10;99.90
18876;DHT22;9570;50.854;13.778;2023-12-20T07:51:14;5.20;99.90
18876;DHT22;9570;50.854;13.778;2023-12-20T07:53:39;5.20;99.90
18876;DHT22;9570;50.854;13.778;2023-12-20T07:56:18;5.20;99.90
18876;DHT22;9570;50.854;13.778;2023-12-20T07:58:45;5.10;99.90
18876;DHT22;9570;50.854;13.778;2023-12-20T08:01:11;5.10;99.90
18876;DHT22;9570;50.854;13.778;2023-12-20T08:03:36;5.10;99.90
18876;DHT22;9570;50.854;13.778;2023-12-20T08:06:02;5.10;99.90
18876;DHT22;9570;50.854;13.778;2023-12-20T08:08:28;5.10;99.90
18876;DHT22;9570;50.854;13.778;2023-12-20T08:10:53;5.10;99.90
18876;DHT22;9570;50.854;13.778;2023-12-20T08:13:19;5.10;99.90
18876;DHT22;9570;50.854;13.778;2023-12-20T08:15:44;5.10;99.90
18876;DHT22;9570;50.854;13.778;2023-12-20T08:18:10;5.10;99.90
18876;DHT22;9570;50.854;13.778;2023-12-20T08:20:35;5.10;99.90
18876;DHT22;9570;50.854;13.778;2023-12-20T08:23:01;5.00;99.90
18876;DHT22;9570;50.854;13.778;2023-12-20T08:25:26;5.00;99.90
18876;DHT22;9570;50.854;13.778;2023-12-20T08:27:52;5.00;99.90
18876;DHT22;9570;50.854;13.778;2023-12-20T08:30:18;5.00;99.90
18876;DHT22;9570;50.854;13.778;2023-12-20T08:32:47;5.20;99.90
18876;DHT22;9570;50.854;13.778;2023-12-20T08:35:13;5.20;99.90
18876;DHT22;9570;50.854;13.778;2023-12-20T08:37:38;5.10;99.90
18876;DHT22;9570;50.854;13.778;2023-12-20T08:40:04;5.20;99.90
18876;DHT22;9570;50.854;13.778;2023-12-20T08:42:30;5.40;99.90
18876;DHT22;9570;50.854;13.778;2023-12-20T08:44:57;5.50;99.90
18876;DHT22;9570;50.854;13.778;2023-12-20T08:47:24;5.50;99.90
18876;DHT22;9570;50.854;13.778;2023-12-20T08:49:49;5.70;99.90
18876;DHT22;9570;50.854;13.778;2023-12-20T08:52:14;6.00;99.90
18876;DHT22;9570;50.854;13.778;2023-12-20T08:54:40;6.40;99.90
18876;DHT22;9570;50.854;13.778;2023-12-20T08:57:05;6.80;99.90
18876;DHT22;9570;50.854;13.778;2023-12-20T08:59:32;7.20;99.90
18876;DHT22;9570;50.854;13.778;2023-12-20T09:01:58;7.30;99.90
18876;DHT22;9570;50.854;13.778;2023-12-20T09:04:23;7.00;99.90
18876;DHT22;9570;50.854;13.778;2023-12-20T09:06:49;7.00;99.90
18876;DHT22;9570;50.854;13.778;2023-12-20T09:09:14;7.20;99.90
18876;DHT22;9570;50.854;13.778;2023-12-20T09:11:40;7.00;99.90
18876;DHT22;9570;50.854;13.778;2023-12-20T09:14:06;6.80;99.90
18876;DHT22;9570;50.854;13.778;2023-12-20T09:16:31;7.00;99.90
18876;DHT22;9570;50.854;13.778;2023-12-20T09:18:57;7.30;99.90
18876;DHT22;9570;50.854;13.778;2023-12-20T09:21:23;7.30;99.90
18876;DHT22;9570;50.854;13.778;2023-12-20T09:23:48;7.50;99.90
18876;DHT22;9570;50.854;13.778;2023-12-20T09:26:14;7.50;99.90
18876;DHT22;9570;50.854;13.778;2023-12-20T09:28:39;7.60;99.90
18876;DHT22;9570;50.854;13.778;2023-12-20T09:31:06;7.90;99.90
18876;DHT22;9570;50.854;13.778;2023-12-20T09:33:32;8.10;99.90
18876;DHT22;9570;50.854;13.778;2023-12-20T09:35:57;8.10;99.90
18876;DHT22;9570;50.854;13.778;2023-12-20T09:38:23;7.90;99.90
18876;DHT22;9570;50.854;13.778;2023-12-20T09:40:48;7.70;99.90
18876;DHT22;9570;50.854;13.778;2023-12-20T09:43:15;7.50;99.90
18876;DHT22;9570;50.854;13.778;2023-12-20T09:45:46;7.20;99.90
18876;DHT22;9570;50.854;13.778;2023-12-20T09:48:13;7.20;99.90
18876;DHT22;9570;50.854;13.778;2023-12-20T09:50:40;7.30;99.90
18876;DHT22;9570;50.854;13.778;2023-12-20T09:53:08;7.40;99.90
18876;DHT22;9570;50.854;13.778;2023-12-20T09:55:36;7.70;99.90
18876;DHT22;9570;50.854;13.778;2023-12-20T09:58:02;8.00;99.90
18876;DHT22;9570;50.854;13.778;2023-12-20T10:00:27;8.30;99.90
18876;DHT22;9570;50.854;13.778;2023-12-20T10:02:58;8.10;99.90
18876;DHT22;9570;50.854;13.778;2023-12-20T10:05:28;8.20;99.90
18876;DHT22;9570;50.854;13.778;2023-12-20T10:07:54;8.60;99.90
18876;DHT22;9570;50.854;13.778;2023-12-20T10:10:20;8.50;99.90
18876;DHT22;9570;50.854;13.778;2023-12-20T10:13:02;8.30;99.90
18876;DHT22;9570;50.854;13.778;2023-12-20T10:15:29;8.50;99.90
18876;DHT22;9570;50.854;13.778;2023-12-20T10:17:54;8.60;99.90
18876;DHT22;9570;50.854;13.778;2023-12-20T10:20:20;8.70;99.90
18876;DHT22;9570;50.854;13.778;2023-12-20T10:22:46;8.50;99.90
18876;DHT22;9570;50.854;13.778;2023-12-20T10:25:12;8.50;99.90
18876;DHT22;9570;50.854;13.778;2023-12-20T10:27:37;8.40;99.90
18876;DHT22;9570;50.854;13.778;2023-12-20T10:30:03;8.50;99.90
18876;DHT22;9570;50.854;13.778;2023-12-20T10:32:29;8.80;99.90
18876;DHT22;9570;50.854;13.778;2023-12-20T10:34:55;9.20;99.90
18876;DHT22;9570;50.854;13.778;2023-12-20T10:37:21;9.40;99.90
18876;DHT22;9570;50.854;13.778;2023-12-20T10:39:51;9.30;99.90
18876;DHT22;9570;50.854;13.778;2023-12-20T10:42:20;9.10;99.90
18876;DHT22;9570;50.854;13.778;2023-12-20T10:44:47;8.60;99.90
18876;DHT22;9570;50.854;13.778;2023-12-20T10:47:13;8.50;99.90
18876;DHT22;9570;50.854;13.778;2023-12-20T10:49:39;8.80;99.90
18876;DHT22;9570;50.854;13.778;2023-12-20T10:52:05;8.90;99.90
18876;DHT22;9570;50.854;13.778;2023-12-20T10:54:31;9.10;99.90
18876;DHT22;9570;50.854;13.778;2023-12-20T10:56:58;8.90;99.90
18876;DHT22;9570;50.854;13.778;2023-12-20T10:59:24;9.00;99.90
18876;DHT22;9570;50.854;13.778;2023-12-20T11:01:50;9.00;99.90
18876;DHT22;9570;50.854;13.778;2023-12-20T11:04:22;8.80;99.90
18876;DHT22;9570;50.854;13.778;2023-12-20T11:06:53;8.50;99.90
18876;DHT22;9570;50.854;13.778;2023-12-20T11:09:30;8.60;99.90
18876;DHT22;9570;50.854;13.778;2023-12-20T11:12:15;8.90;99.90
18876;DHT22;9570;50.854;13.778;2023-12-20T11:14:56;9.00;99.90
18876;DHT22;9570;50.854;13.778;2023-12-20T11:17:23;8.60;99.90
18876;DHT22;9570;50.854;13.778;2023-12-20T11:22:29;8.50;99.90
18876;DHT22;9570;50.854;13.778;2023-12-20T11:25:06;8.10;99.90
18876;DHT22;9570;50.854;13.778;2023-12-20T11:27:34;8.00;99.90
18876;DHT22;9570;50.854;13.778;2023-12-20T11:29:59;8.20;99.90
18876;DHT22;9570;50.854;13.778;2023-12-20T11:34:57;7.70;99.90
18876;DHT22;9570;50.854;13.778;2023-12-20T11:37:31;7.70;99.90
18876;DHT22;9570;50.854;13.778;2023-12-20T11:40:02;7.50;99.90
18876;DHT22;9570;50.854;13.778;2023-12-20T11:42:42;7.60;99.90
18876;DHT22;9570;50.854;13.778;2023-12-20T11:45:15;7.60;99.90
18876;DHT22;9570;50.854;13.778;2023-12-20T11:47:43;7.60;99.90
18876;DHT22;9570;50.854;13.778;2023-12-20T11:50:11;7.80;99.90
18876;DHT22;9570;50.854;13.778;2023-12-20T11:52:37;7.40;99.90
18876;DHT22;9570;50.854;13.778;2023-12-20T11:55:02;7.50;99.90
18876;DHT22;9570;50.854;13.778;2023-12-20T11:57:29;7.40;99.90
18876;DHT22;9570;50.854;13.778;2023-12-20T11:59:55;7.20;99.90
18876;DHT22;9570;50.854;13.778;2023-12-20T12:02:21;7.20;99.90
18876;DHT22;9570;50.854;13.778;2023-12-20T12:04:48;7.10;99.90
18876;DHT22;9570;50.854;13.778;2023-12-20T12:07:14;7.10;99.90
18876;DHT22;9570;50.854;13.778;2023-12-20T12:09:39;7.10;99.90
18876;DHT22;9570;50.854;13.778;2023-12-20T12:12:05;7.00;99.90
18876;DHT22;9570;50.854;13.778;2023-12-20T12:14:31;7.10;99.90
18876;DHT22;9570;50.854;13.778;2023-12-20T12:16:57;7.20;99.90
18876;DHT22;9570;50.854;13.778;2023-12-20T12:19:23;7.20;99.90
18876;DHT22;9570;50.854;13.778;2023-12-20T12:21:50;7.20;99.90
18876;DHT22;9570;50.854;13.778;2023-12-20T12:24:20;7.20;99.90
18876;DHT22;9570;50.854;13.778;2023-12-20T12:26:51;7.20;99.90
18876;DHT22;9570;50.854;13.778;2023-12-20T12:29:16;7.20;99.90
18876;DHT22;9570;50.854;13.778;2023-12-20T12:31:42;7.20;99.90
18876;DHT22;9570;50.854;13.778;2023-12-20T12:34:08;7.20;99.90
18876;DHT22;9570;50.854;13.778;2023-12-20T12:36:34;7.30;99.90
18876;DHT22;9570;50.854;13.778;2023-12-20T12:39:02;7.30;99.90
18876;DHT22;9570;50.854;13.778;2023-12-20T12:41:30;7.20;99.90
18876;DHT22;9570;50.854;13.778;2023-12-20T12:43:55;7.10;99.90
18876;DHT22;9570;50.854;13.778;2023-12-20T12:46:21;7.10;99.90
18876;DHT22;9570;50.854;13.778;2023-12-20T12:48:47;7.00;99.90
18876;DHT22;9570;50.854;13.778;2023-12-20T12:51:12;7.00;99.90
18876;DHT22;9570;50.854;13.778;2023-12-20T12:53:39;6.90;99.90
18876;DHT22;9570;50.854;13.778;2023-12-20T12:56:05;6.90;99.90
18876;DHT22;9570;50.854;13.778;2023-12-20T12:58:30;7.00;99.90
18876;DHT22;9570;50.854;13.778;2023-12-20T13:00:56;7.00;99.90
18876;DHT22;9570;50.854;13.778;2023-12-20T13:03:22;7.00;99.90
18876;DHT22;9570;50.854;13.778;2023-12-20T13:05:47;6.90;99.90
18876;DHT22;9570;50.854;13.778;2023-12-20T13:08:14;6.80;99.90
18876;DHT22;9570;50.854;13.778;2023-12-20T13:10:39;6.70;99.90
18876;DHT22;9570;50.854;13.778;2023-12-20T13:13:05;6.70;99.90
18876;DHT22;9570;50.854;13.778;2023-12-20T13:15:30;6.60;99.90
18876;DHT22;9570;50.854;13.778;2023-12-20T13:17:56;6.50;99.90
18876;DHT22;9570;50.854;13.778;2023-12-20T13:20:21;6.50;99.90
18876;DHT22;9570;50.854;13.778;2023-12-20T13:22:47;6.50;99.90
18876;DHT22;9570;50.854;13.778;2023-12-20T13:25:13;6.50;99.90
18876;DHT22;9570;50.854;13.778;2023-12-20T13:27:39;6.40;99.90
18876;DHT22;9570;50.854;13.778;2023-12-20T13:30:05;6.30;99.90
18876;DHT22;9570;50.854;13.778;2023-12-20T13:32:31;6.30;99.90
18876;DHT22;9570;50.854;13.778;2023-12-20T13:34:56;6.20;99.90
18876;DHT22;9570;50.854;13.778;2023-12-20T13:37:22;6.20;99.90
18876;DHT22;9570;50.854;13.778;2023-12-20T13:39:48;6.10;99.90
18876;DHT22;9570;50.854;13.778;2023-12-20T13:42:14;6.10;99.90
18876;DHT22;9570;50.854;13.778;2023-12-20T13:44:39;6.10;99.90
18876;DHT22;9570;50.854;13.778;2023-12-20T13:47:05;6.00;99.90
18876;DHT22;9570;50.854;13.778;2023-12-20T13:49:31;6.00;99.90
18876;DHT22;9570;50.854;13.778;2023-12-20T13:51:57;5.90;99.90
18876;DHT22;9570;50.854;13.778;2023-12-20T13:54:24;6.00;99.90
18876;DHT22;9570;50.854;13.778;2023-12-20T13:56:49;6.00;99.90
18876;DHT22;9570;50.854;13.778;2023-12-20T13:59:15;6.00;99.90
18876;DHT22;9570;50.854;13.778;2023-12-20T14:01:40;6.00;99.90
18876;DHT22;9570;50.854;13.778;2023-12-20T14:04:06;6.00;99.90
18876;DHT22;9570;50.854;13.778;2023-12-20T14:06:32;5.90;99.90
18876;DHT22;9570;50.854;13.778;2023-12-20T14:08:58;5.90;99.90
18876;DHT22;9570;50.854;13.778;2023-12-20T14:11:25;5.90;99.90
18876;DHT22;9570;50.854;13.778;2023-12-20T14:13:51;6.00;99.90
18876;DHT22;9570;50.854;13.778;2023-12-20T14:16:16;5.80;99.90
18876;DHT22;9570;50.854;13.778;2023-12-20T14:18:42;5.80;99.90
18876;DHT22;9570;50.854;13.778;2023-12-20T14:21:07;5.80;99.90
18876;DHT22;9570;50.854;13.778;2023-12-20T14:23:33;5.90;99.90
18876;DHT22;9570;50.854;13.778;2023-12-20T14:25:59;5.80;99.90
18876;DHT22;9570;50.854;13.778;2023-12-20T14:28:25;5.80;99.90
18876;DHT22;9570;50.854;13.778;2023-12-20T14:30:50;5.80;99.90
18876;DHT22;9570;50.854;13.778;2023-12-20T14:33:16;5.90;99.90
18876;DHT22;9570;50.854;13.778;2023-12-20T14:35:41;5.90;99.90
18876;DHT22;9570;50.854;13.778;2023-12-20T14:38:09;5.80;99.90
18876;DHT22;9570;50.854;13.778;2023-12-20T14:40:34;5.80;99.90
18876;DHT22;9570;50.854;13.778;2023-12-20T14:43:00;5.90;99.90
18876;DHT22;9570;50.854;13.778;2023-12-20T14:45:26;5.90;99.90
18876;DHT22;9570;50.854;13.778;2023-12-20T14:47:52;5.80;99.90
18876;DHT22;9570;50.854;13.778;2023-12-20T14:50:18;5.90;99.90
18876;DHT22;9570;50.854;13.778;2023-12-20T14:52:44;5.90;99.90
18876;DHT22;9570;50.854;13.778;2023-12-20T14:55:10;5.90;99.90
18876;DHT22;9570;50.854;13.778;2023-12-20T14:57:36;6.00;99.90
18876;DHT22;9570;50.854;13.778;2023-12-20T15:00:01;5.90;99.90
18876;DHT22;9570;50.854;13.778;2023-12-20T15:02:27;5.80;99.90
18876;DHT22;9570;50.854;13.778;2023-12-20T15:04:52;5.90;99.90
18876;DHT22;9570;50.854;13.778;2023-12-20T15:07:19;5.90;99.90
18876;DHT22;9570;50.854;13.778;2023-12-20T15:09:45;5.90;99.90
18876;DHT22;9570;50.854;13.778;2023-12-20T15:12:12;5.90;99.90
18876;DHT22;9570;50.854;13.778;2023-12-20T15:14:37;5.90;99.90
18876;DHT22;9570;50.854;13.778;2023-12-20T15:17:03;5.80;99.90
18876;DHT22;9570;50.854;13.778;2023-12-20T15:19:30;6.00;99.90
18876;DHT22;9570;50.854;13.778;2023-12-20T15:21:56;6.00;99.90
18876;DHT22;9570;50.854;13.778;2023-12-20T15:24:21;6.00;99.90
18876;DHT22;9570;50.854;13.778;2023-12-20T15:26:54;6.00;99.90
18876;DHT22;9570;50.854;13.778;2023-12-20T15:29:19;6.00;99.90
18876;DHT22;9570;50.854;13.778;2023-12-20T15:31:48;5.90;99.90
18876;DHT22;9570;50.854;13.778;2023-12-20T15:34:14;5.90;99.90
18876;DHT22;9570;50.854;13.778;2023-12-20T15:36:40;5.90;99.90
18876;DHT22;9570;50.854;13.778;2023-12-20T15:39:06;5.90;99.90
18876;DHT22;9570;50.854;13.778;2023-12-20T15:41:34;5.80;99.90
18876;DHT22;9570;50.854;13.778;2023-12-20T15:43:59;5.80;99.90